Terminal Aerodrome Forecast
Issued by NWS Binghamton, NY

Home | Current Version | Previous Version | Text Only | Print | Product List | Glossary On
Versions: 1 2 3 4 5 6 7 8 9 10 11 12 13 14 15 16 17 18 19 20 21 22 23 24 25
264
FTUS41 KBGM 291739
TAFBGM
TAF
KBGM 291739Z 2918/3018 32008KT P6SM BKN035
      TEMPO 2918/2920 BKN025
     FM300500 36004KT P6SM SCT050 BKN200
     FM300900 06004KT P6SM BKN080
     FM301400 12005KT P6SM BKN045=

USA.gov is the U.S. government's official web portal to all federal, state and local government web resources and services.